Terminal Aerodrome Forecast
Issued by NWS

Home | Current Version | Previous Version | Text Only | Print | Product List | Glossary On
Versions: 1 2 3 4 5 6 7 8 9 10 11 12 13 14 15 16 17 18 19 20
000
FTUS42 KGSP 271158 CCA
TAFGMU
TAF COR
KGMU 271158Z 2712/2812 18006KT P6SM BKN025
      TEMPO 2712/2716 BKN015
     FM271600 22007KT P6SM VCSH BKN025
     FM271900 22009KT P6SM VCTS BKN035CB PROB30 2721/2801 4SM -TSRA
      OVC020CB
     FM280100 21005KT P6SM -SHRA SCT010 BKN050
     FM280700 20004KT 5SM BR VCSH BKN010=

USA.gov is the U.S. government's official web portal to all federal, state and local government web resources and services.